createdAt,value
2022-11-04T00:04:38.925Z,99929.47
2022-11-04T00:10:01.984Z,99935.38
2022-11-04T00:15:42.573Z,99943.66
2022-11-04T00:21:24.507Z,99946.69
2022-11-04T00:27:05.368Z,99960.69
2022-11-04T00:32:45.825Z,99971.50
2022-11-04T00:38:10.518Z,99977.09
2022-11-04T00:43:33.683Z,99975.88
2022-11-04T00:48:56.776Z,99977.44
2022-11-04T00:54:21.232Z,99976.50
2022-11-04T00:59:45.690Z,99984.56
2022-11-04T01:05:09.678Z,100007.03
2022-11-04T01:10:36.130Z,100020.38
2022-11-04T01:15:59.630Z,100026.19
2022-11-04T01:21:22.755Z,100037.81
2022-11-04T01:26:47.311Z,100046.06
2022-11-04T01:32:10.438Z,100046.69
2022-11-04T01:37:33.559Z,100050.72
2022-11-04T01:42:58.095Z,100064.72
2022-11-04T01:48:23.857Z,100073.22
2022-11-04T01:53:51.662Z,100086.09
2022-11-04T01:59:19.652Z,100097.69
2022-11-04T02:04:44.156Z,100102.41
2022-11-04T02:10:10.252Z,100124.31
2022-11-04T02:15:39.295Z,100130.72
2022-11-04T02:21:31.788Z,100145.63
2022-11-04T02:27:23.079Z,100141.56
2022-11-04T02:33:01.417Z,100151.97
2022-11-04T02:38:32.278Z,100143.28
2022-11-04T02:44:03.653Z,100144.16
2022-11-04T02:49:31.279Z,100161.63
2022-11-04T02:54:59.622Z,100163.94
2022-11-04T03:00:22.799Z,100182.19
2022-11-04T03:05:49.577Z,100184.47
2022-11-04T03:11:13.625Z,100198.22
2022-11-04T03:16:39.229Z,100201.00
2022-11-04T03:22:06.241Z,100213.06
2022-11-04T03:27:34.642Z,100215.00
2022-11-04T03:33:00.864Z,100214.38
2022-11-04T03:38:25.593Z,100218.88
2022-11-04T03:43:48.689Z,100204.97
2022-11-04T03:49:13.143Z,100217.78
2022-11-04T03:54:37.609Z,100213.47
2022-11-04T04:00:12.965Z,100227.97
2022-11-04T04:05:40.621Z,100240.50
2022-11-04T04:11:09.651Z,100255.16
2022-11-04T04:16:36.021Z,100262.34
2022-11-04T04:22:03.483Z,100262.22
2022-11-04T04:27:33.631Z,100265.25
2022-11-04T04:32:59.336Z,100269.69
2022-11-04T04:38:41.466Z,100280.69
2022-11-04T04:44:23.916Z,100280.03
2022-11-04T04:49:53.818Z,100291.34
2022-11-04T04:55:17.404Z,100283.06
2022-11-04T05:00:41.822Z,100301.53
2022-11-04T05:06:05.200Z,100306.47
2022-11-04T05:11:28.254Z,100302.66
2022-11-04T05:16:52.696Z,100295.94
2022-11-04T05:22:15.772Z,100301.97
2022-11-04T05:27:38.954Z,100301.25
2022-11-04T05:33:05.109Z,100316.78
2022-11-04T05:38:28.534Z,100326.31
2022-11-04T05:43:52.752Z,100313.34
2022-11-04T05:49:17.304Z,100327.22
2022-11-04T05:54:40.408Z,100337.31
2022-11-04T06:00:04.006Z,100337.25
2022-11-04T06:05:29.399Z,100346.34
2022-11-04T06:10:52.437Z,100334.00
2022-11-04T06:16:15.547Z,100352.06
2022-11-04T06:21:40.052Z,100364.34
2022-11-04T06:27:05.131Z,100382.31
2022-11-04T06:32:28.370Z,100376.56
2022-11-04T06:37:52.815Z,100375.69
2022-11-04T06:43:15.989Z,100406.38
2022-11-04T06:48:39.103Z,100411.13
2022-11-04T06:54:03.726Z,100427.25
2022-11-04T06:59:26.851Z,100426.16
2022-11-04T07:04:51.880Z,100428.91
2022-11-04T07:10:17.128Z,100435.91
2022-11-04T07:15:40.662Z,100439.00
2022-11-04T07:21:08.783Z,100455.31
2022-11-04T07:26:34.609Z,100467.59
2022-11-04T07:31:57.758Z,100462.56
2022-11-04T07:37:20.909Z,100486.25
2022-11-04T07:42:45.376Z,100495.53
2022-11-04T07:48:16.081Z,100500.69
2022-11-04T07:53:39.231Z,100505.41
2022-11-04T07:59:06.825Z,100505.50
2022-11-04T08:04:30.018Z,100502.91
2022-11-04T08:09:53.165Z,100509.03
2022-11-04T08:15:17.888Z,100517.59
2022-11-04T08:20:41.140Z,100529.06
2022-11-04T08:26:08.590Z,100539.56
2022-11-04T08:31:33.738Z,100542.34
2022-11-04T08:36:57.550Z,100537.50
2022-11-04T08:42:20.724Z,100548.28
2022-11-04T08:47:47.768Z,100552.22
2022-11-04T08:53:11.315Z,100560.22
2022-11-04T08:58:34.540Z,100557.25
2022-11-04T09:03:59.116Z,100575.34
2022-11-04T09:09:22.314Z,100576.50
2022-11-04T09:14:45.366Z,100574.69
2022-11-04T09:20:12.678Z,100574.50
2022-11-04T09:25:36.215Z,100581.19
2022-11-04T09:30:59.630Z,100584.00
2022-11-04T09:36:26.839Z,100594.69
2022-11-04T09:41:57.702Z,100604.50
2022-11-04T09:47:26.636Z,100609.03
2022-11-04T09:52:56.823Z,100616.38
2022-11-04T09:58:25.183Z,100627.69
2022-11-04T10:03:57.417Z,100645.59
2022-11-04T10:09:31.372Z,100649.22
2022-11-04T10:15:10.520Z,100673.47
2022-11-04T10:20:44.073Z,100682.53
2022-11-04T10:26:17.257Z,100681.63
2022-11-04T10:31:43.866Z,100694.19
2022-11-04T10:37:10.635Z,100688.59
2022-11-04T10:42:38.214Z,100700.25
2022-11-04T10:48:05.115Z,100699.19
2022-11-04T10:53:29.883Z,100712.41
2022-11-04T10:58:55.263Z,100709.47
2022-11-04T11:04:27.268Z,100695.88
2022-11-04T11:09:54.373Z,100709.88
2022-11-04T11:15:30.106Z,100729.50
2022-11-04T11:21:07.763Z,100727.41
2022-11-04T11:26:34.290Z,100736.03
2022-11-04T11:32:00.724Z,100738.59
2022-11-04T11:37:25.774Z,100751.19
2022-11-04T11:42:49.133Z,100784.41
2022-11-04T11:48:31.953Z,100778.97
2022-11-04T11:54:18.263Z,100808.34
2022-11-04T12:06:17.923Z,100793.66
2022-11-04T12:11:50.774Z,100785.81
2022-11-04T12:17:25.210Z,100793.06
2022-11-04T12:22:56.312Z,100799.22
2022-11-04T12:28:25.637Z,100809.25
2022-11-04T12:33:55.677Z,100814.25
2022-11-04T12:39:34.459Z,100822.59
2022-11-04T12:45:08.533Z,100825.34
2022-11-04T12:50:42.546Z,100825.84
2022-11-04T12:56:12.836Z,100831.56
2022-11-04T13:01:39.114Z,100838.84
2022-11-04T13:07:04.419Z,100836.75
2022-11-04T13:12:32.115Z,100858.94
2022-11-04T13:17:59.962Z,100866.97
2022-11-04T13:23:47.180Z,100874.66
2022-11-04T13:29:21.328Z,100876.25
2022-11-04T13:34:51.978Z,100876.88
2022-11-04T13:40:17.417Z,100894.09
2022-11-04T13:45:48.730Z,100893.44
2022-11-04T13:51:13.188Z,100898.44
2022-11-04T13:56:37.918Z,100902.25
2022-11-04T14:02:33.900Z,100910.09
2022-11-04T14:08:11.912Z,100910.31
2022-11-04T14:13:52.369Z,100921.09
2022-11-04T14:19:58.136Z,100926.13
2022-11-04T14:25:33.898Z,100932.28
2022-11-04T14:31:00.450Z,100936.75
2022-11-04T14:36:32.775Z,100946.44
2022-11-04T14:41:59.913Z,100959.47
2022-11-04T14:47:26.292Z,100963.25
2022-11-04T14:52:54.632Z,100964.44
2022-11-04T14:58:28.033Z,100972.34
2022-11-04T15:04:11.665Z,100986.44
2022-11-04T15:09:39.620Z,100964.38
2022-11-04T15:15:27.910Z,100973.03
2022-11-04T15:20:53.842Z,100988.06
2022-11-04T15:26:28.094Z,101000.25
2022-11-04T15:31:57.946Z,101001.34
2022-11-04T15:37:24.676Z,101010.09
2022-11-04T15:42:47.955Z,101015.53
2022-11-04T15:48:30.107Z,101019.19
2022-11-04T15:53:55.470Z,101030.00
2022-11-04T15:59:24.009Z,101031.97
2022-11-04T16:05:03.133Z,101044.16
2022-11-04T16:10:30.168Z,101045.16
2022-11-04T16:16:09.045Z,101060.03
2022-11-04T16:21:36.464Z,101062.63
2022-11-04T16:26:59.737Z,101081.09
2022-11-04T16:32:27.834Z,101084.78
2022-11-04T16:37:52.533Z,101101.78
2022-11-04T16:43:18.880Z,101100.84
2022-11-04T16:48:42.079Z,101087.03
2022-11-04T16:54:06.574Z,101119.97
2022-11-04T16:59:32.458Z,101107.13
2022-11-04T17:04:56.064Z,101122.00
2022-11-04T17:10:26.095Z,101140.28
2022-11-04T17:15:49.342Z,101146.47
2022-11-04T17:21:16.942Z,101144.94
2022-11-04T17:26:41.539Z,101139.75
2022-11-04T17:32:04.801Z,101139.00
2022-11-04T17:37:27.973Z,101146.06
2022-11-04T17:43:12.201Z,101149.59
2022-11-04T17:48:35.831Z,101155.78
2022-11-04T17:53:58.952Z,101162.81
2022-11-04T17:59:23.631Z,101167.31
2022-11-04T18:04:47.038Z,101193.47
2022-11-04T18:10:11.394Z,101193.53
2022-11-04T18:15:35.927Z,101185.88
2022-11-04T18:21:03.441Z,101211.09
2022-11-04T18:26:26.759Z,101214.72
2022-11-04T18:31:51.366Z,101214.84
2022-11-04T18:37:14.539Z,101225.28
2022-11-04T18:42:37.633Z,101232.28
2022-11-04T18:48:02.046Z,101228.97
2022-11-04T18:53:27.098Z,101231.72
2022-11-04T18:58:50.789Z,101232.69
2022-11-04T19:04:15.392Z,101244.00
2022-11-04T19:09:46.657Z,101257.41
2022-11-04T19:15:11.350Z,101254.69
2022-11-04T19:20:36.268Z,101250.50
2022-11-04T19:26:02.236Z,101266.00
2022-11-04T19:31:27.441Z,101262.44
2022-11-04T19:36:52.206Z,101269.25
2022-11-04T19:42:34.469Z,101267.47
2022-11-04T19:47:57.753Z,101273.53
2022-11-04T19:53:22.304Z,101272.66
2022-11-04T19:58:45.964Z,101260.72
2022-11-04T20:04:09.242Z,101272.88
2022-11-04T20:09:34.058Z,101283.34
2022-11-04T20:14:57.420Z,101285.16
2022-11-04T20:20:20.513Z,101296.53
2022-11-04T20:25:45.325Z,101298.31
2022-11-04T20:31:14.500Z,101303.59
2022-11-04T20:36:38.659Z,101312.31
2022-11-04T20:42:03.323Z,101331.38
2022-11-04T20:47:26.508Z,101343.13
2022-11-04T20:52:49.619Z,101350.94
2022-11-04T20:58:14.089Z,101357.75
2022-11-04T21:03:37.396Z,101347.16
2022-11-04T21:09:00.846Z,101358.38
2022-11-04T21:14:25.197Z,101371.44
2022-11-04T21:19:48.308Z,101373.25
2022-11-04T21:25:11.545Z,101376.94
2022-11-04T21:31:03.751Z,101391.66
2022-11-04T21:36:27.042Z,101390.75
2022-11-04T21:41:50.175Z,101399.38
2022-11-04T21:47:15.096Z,101404.66
2022-11-04T21:52:38.187Z,101409.91
2022-11-04T21:58:01.329Z,101415.16
2022-11-04T22:03:26.806Z,101421.19
2022-11-04T22:08:53.881Z,101416.06
2022-11-04T22:14:17.075Z,101417.84
2022-11-04T22:19:41.527Z,101417.03
2022-11-04T22:25:06.640Z,101423.16
2022-11-04T22:30:29.751Z,101437.09
2022-11-04T22:35:54.160Z,101423.22
2022-11-04T22:41:18.902Z,101426.69
2022-11-04T22:46:44.573Z,101421.53
2022-11-04T22:52:09.443Z,101420.69
2022-11-04T22:57:32.556Z,101419.00
2022-11-04T23:02:55.884Z,101430.25
2022-11-04T23:08:20.591Z,101437.19
2022-11-04T23:14:07.545Z,101445.00
2022-11-04T23:19:31.041Z,101430.25
2022-11-04T23:25:10.164Z,101428.53
2022-11-04T23:30:34.865Z,101417.31
2022-11-04T23:36:14.753Z,101420.81
2022-11-04T23:41:56.753Z,101422.59
2022-11-04T23:47:37.361Z,101419.13
2022-11-04T23:53:18.334Z,101427.84
2022-11-04T23:59:00.196Z,101433.94
